Terminal Aerodrome Forecast
Issued by NWS

Home | Current Version | Previous Version | Text Only | Print | Product List | Glossary On
Versions: 1 2 3 4 5 6 7 8 9 10 11 12 13 14 15
000
FTUS46 KMFR 231100
TAFRBG
TAF
KRBG 231134Z 2312/2412 17003KT P6SM -RA BKN020 OVC040
     FM231900 35006KT P6SM -SHRA SCT025 BKN035 OVC040
     FM240300 VRB03KT P6SM VCSH FEW025 BKN040
     FM240700 00000KT 3SM BR BKN020=

USA.gov is the U.S. government's official web portal to all federal, state and local government web resources and services.